createdAt,value
2018-05-08T00:00:33.122Z,11.00
2018-05-08T00:03:36.333Z,10.80
2018-05-08T00:06:39.821Z,10.70
2018-05-08T00:09:43.176Z,10.80
2018-05-08T00:12:46.990Z,10.80
2018-05-08T00:15:50.942Z,10.80
2018-05-08T00:18:54.414Z,10.80
2018-05-08T00:21:58.441Z,10.90
2018-05-08T00:25:03.666Z,10.80
2018-05-08T00:28:07.710Z,10.60
2018-05-08T00:31:11.093Z,10.60
2018-05-08T00:34:14.526Z,10.50
2018-05-08T00:37:17.706Z,10.30
2018-05-08T00:40:20.992Z,10.40
2018-05-08T00:43:24.325Z,10.60
2018-05-08T00:46:27.563Z,10.60
2018-05-08T00:49:33.696Z,10.60
2018-05-08T00:52:37.709Z,10.60
2018-05-08T00:55:40.948Z,10.50
2018-05-08T00:58:44.131Z,10.30
2018-05-08T01:01:48.216Z,10.00
2018-05-08T01:04:51.730Z,10.00
2018-05-08T01:07:55.652Z,9.70
2018-05-08T01:10:58.869Z,9.60
2018-05-08T01:14:05.598Z,9.60
2018-05-08T01:17:09.665Z,9.70
2018-05-08T01:20:13.003Z,9.60
2018-05-08T01:23:16.166Z,9.60
2018-05-08T01:26:19.541Z,9.50
2018-05-08T01:29:22.711Z,9.50
2018-05-08T01:32:26.873Z,9.30
2018-05-08T01:38:43.209Z,9.50
2018-05-08T01:41:46.571Z,9.40
2018-05-08T01:44:49.897Z,9.50
2018-05-08T01:47:53.365Z,9.50
2018-05-08T01:50:57.569Z,9.30
2018-05-08T01:54:01.016Z,9.30
2018-05-08T01:57:04.526Z,9.20
2018-05-08T02:00:07.773Z,9.00
2018-05-08T02:03:11.704Z,9.10
2018-05-08T02:06:15.885Z,9.10
2018-05-08T02:09:19.230Z,9.10
2018-05-08T02:12:22.415Z,9.10
2018-05-08T02:15:25.956Z,9.00
2018-05-08T02:18:29.128Z,8.90
2018-05-08T02:21:33.260Z,8.90
2018-05-08T02:24:36.732Z,8.90
2018-05-08T02:27:42.522Z,9.10
2018-05-08T02:30:45.739Z,8.80
2018-05-08T02:33:48.920Z,8.80
2018-05-08T02:36:52.061Z,8.60
2018-05-08T02:39:55.269Z,8.70
2018-05-08T02:42:59.261Z,8.60
2018-05-08T02:46:03.961Z,8.60
2018-05-08T02:49:07.297Z,8.50
2018-05-08T02:52:13.010Z,8.50
2018-05-08T02:55:17.511Z,8.50
2018-05-08T02:58:21.532Z,8.80
2018-05-08T03:01:24.747Z,8.80
2018-05-08T03:04:28.741Z,8.50
2018-05-08T03:07:32.147Z,8.50
2018-05-08T03:10:36.139Z,8.50
2018-05-08T03:13:39.560Z,8.50
2018-05-08T03:16:44.008Z,8.40
2018-05-08T03:19:47.218Z,8.30
2018-05-08T03:22:50.851Z,8.10
2018-05-08T03:25:55.114Z,8.00
2018-05-08T03:28:58.410Z,8.00
2018-05-08T03:32:03.075Z,8.20
2018-05-08T03:35:08.690Z,8.10
2018-05-08T03:38:12.821Z,8.00
2018-05-08T03:41:16.796Z,8.10
2018-05-08T03:44:20.012Z,7.90
2018-05-08T03:47:23.951Z,7.70
2018-05-08T03:50:27.302Z,7.70
2018-05-08T03:53:32.499Z,7.70
2018-05-08T03:56:36.454Z,7.70
2018-05-08T03:59:42.000Z,7.70
2018-05-08T04:03:00.022Z,7.70
2018-05-08T04:06:23.278Z,7.70
2018-05-08T04:09:26.481Z,7.70
2018-05-08T04:12:29.846Z,7.70
2018-05-08T04:15:34.416Z,7.60
2018-05-08T04:18:37.759Z,7.40
2018-05-08T04:21:40.975Z,7.40
2018-05-08T04:24:44.472Z,7.50
2018-05-08T04:27:47.809Z,7.70
2018-05-08T04:30:51.884Z,8.30
2018-05-08T04:33:55.322Z,8.30
2018-05-08T04:36:59.426Z,8.30
2018-05-08T04:40:15.082Z,8.20
2018-05-08T04:43:19.265Z,8.20
2018-05-08T04:46:22.513Z,8.10
2018-05-08T04:49:25.828Z,8.10
2018-05-08T04:52:29.119Z,8.40
2018-05-08T04:55:33.956Z,8.50
2018-05-08T04:58:42.204Z,8.70
2018-05-08T05:01:46.466Z,8.80
2018-05-08T05:04:49.910Z,8.90
2018-05-08T05:07:53.305Z,9.00
2018-05-08T05:10:57.430Z,9.10
2018-05-08T05:14:00.692Z,9.10
2018-05-08T05:17:13.664Z,9.20
2018-05-08T05:20:17.353Z,9.40
2018-05-08T05:23:20.627Z,9.50
2018-05-08T05:26:23.784Z,9.70
2018-05-08T05:29:26.995Z,9.90
2018-05-08T05:32:30.202Z,9.90
2018-05-08T05:35:36.826Z,10.00
2018-05-08T05:38:40.694Z,10.10
2018-05-08T05:41:44.201Z,10.40
2018-05-08T05:44:47.424Z,10.60
2018-05-08T05:47:51.423Z,11.00
2018-05-08T05:50:54.596Z,11.00
2018-05-08T05:53:58.652Z,11.20
2018-05-08T05:57:03.687Z,11.40
2018-05-08T06:00:07.020Z,11.60
2018-05-08T06:03:10.681Z,11.90
2018-05-08T06:06:14.296Z,12.20
2018-05-08T06:09:20.082Z,12.60
2018-05-08T06:12:23.389Z,12.60
2018-05-08T06:15:29.259Z,12.90
2018-05-08T06:18:34.747Z,13.20
2018-05-08T06:21:39.342Z,13.40
2018-05-08T06:24:42.757Z,14.70
2018-05-08T06:27:50.274Z,20.30
2018-05-08T06:30:53.976Z,20.30
2018-05-08T06:33:57.994Z,25.00
2018-05-08T06:37:01.790Z,24.90
2018-05-08T06:40:05.258Z,26.40
2018-05-08T06:43:10.138Z,27.00
2018-05-08T06:46:14.477Z,28.30
2018-05-08T06:49:19.532Z,31.00
2018-05-08T06:52:22.751Z,30.90
2018-05-08T06:55:26.129Z,31.10
2018-05-08T06:58:29.764Z,30.80
2018-05-08T07:04:55.561Z,33.40
2018-05-08T07:07:58.736Z,32.10
2018-05-08T07:11:01.946Z,32.10
2018-05-08T07:14:10.491Z,32.40
2018-05-08T07:17:13.946Z,32.40
2018-05-08T07:20:17.094Z,32.10
2018-05-08T07:23:20.269Z,32.80
2018-05-08T07:26:23.427Z,31.70
2018-05-08T07:29:27.399Z,29.90
2018-05-08T07:32:30.829Z,29.90
2018-05-08T07:35:35.739Z,31.10
2018-05-08T07:38:39.045Z,31.10
2018-05-08T07:41:42.241Z,30.40
2018-05-08T07:44:47.678Z,30.00
2018-05-08T07:47:51.084Z,29.80
2018-05-08T07:50:54.323Z,30.50
2018-05-08T07:53:58.373Z,31.20
2018-05-08T07:57:05.349Z,31.20
2018-05-08T08:03:27.498Z,30.40
2018-05-08T08:06:31.132Z,30.30
2018-05-08T08:09:34.866Z,29.90
2018-05-08T08:12:43.280Z,30.00
2018-05-08T08:15:46.527Z,29.90
2018-05-08T08:18:50.048Z,30.60
2018-05-08T08:21:54.391Z,29.50
2018-05-08T08:24:57.670Z,28.20
2018-05-08T08:31:56.668Z,28.50
2018-05-08T08:35:00.753Z,28.20
2018-05-08T08:38:05.200Z,28.20
2018-05-08T08:41:25.094Z,28.30
2018-05-08T08:44:29.358Z,28.50
2018-05-08T08:47:32.700Z,28.30
2018-05-08T08:50:41.072Z,29.20
2018-05-08T08:53:44.312Z,29.20
2018-05-08T08:56:48.207Z,30.10
2018-05-08T08:59:51.582Z,29.80
2018-05-08T09:02:55.598Z,28.70
2018-05-08T09:06:03.920Z,28.60
2018-05-08T09:09:12.139Z,28.50
2018-05-08T09:12:15.371Z,28.60
2018-05-08T09:15:20.137Z,27.80
2018-05-08T09:18:23.983Z,27.80
2018-05-08T09:21:28.173Z,28.50
2018-05-08T09:24:32.519Z,28.20
2018-05-08T09:27:37.535Z,28.90
2018-05-08T09:34:12.309Z,27.70
2018-05-08T09:37:37.373Z,27.40
2018-05-08T09:40:40.947Z,26.80
2018-05-08T10:12:10.792Z,26.80
2018-05-08T10:15:14.590Z,26.90
2018-05-08T10:18:32.814Z,27.90
2018-05-08T10:21:36.348Z,27.80
2018-05-08T10:28:02.367Z,27.90
2018-05-08T10:31:07.035Z,27.20
2018-05-08T10:34:13.774Z,27.10
2018-05-08T10:37:17.351Z,27.30
2018-05-08T10:40:21.045Z,27.40
2018-05-08T10:46:54.451Z,26.80
2018-05-08T10:49:57.952Z,26.80
2018-05-08T10:53:19.412Z,26.90
2018-05-08T10:56:23.425Z,26.10
2018-05-08T10:59:26.994Z,26.40
2018-05-08T11:02:30.739Z,26.70
2018-05-08T11:05:33.918Z,26.80
2018-05-08T11:12:02.617Z,27.10
2018-05-08T11:18:25.322Z,27.30
2018-05-08T11:21:28.568Z,26.50
2018-05-08T11:28:00.718Z,27.10
2018-05-08T11:31:04.768Z,26.60
2018-05-08T11:34:10.045Z,26.60
2018-05-08T11:37:15.225Z,26.00
2018-05-08T11:40:19.414Z,26.20
2018-05-08T11:43:22.639Z,25.80
2018-05-08T11:46:29.762Z,24.60
2018-05-08T11:49:33.138Z,24.50
2018-05-08T11:52:40.582Z,24.00
2018-05-08T11:55:44.764Z,23.70
2018-05-08T11:58:50.526Z,23.70
2018-05-08T12:02:00.943Z,23.40
2018-05-08T12:05:10.450Z,23.30
2018-05-08T12:08:14.322Z,23.30
2018-05-08T12:11:17.537Z,23.10
2018-05-08T12:14:22.026Z,23.00
2018-05-08T12:17:25.276Z,23.00
2018-05-08T12:20:32.259Z,23.00
2018-05-08T12:23:36.829Z,23.10
2018-05-08T12:26:40.997Z,23.00
2018-05-08T12:29:45.171Z,23.00
2018-05-08T12:32:49.586Z,22.90
2018-05-08T12:35:53.175Z,23.10
2018-05-08T12:38:57.992Z,23.10
2018-05-08T12:49:21.665Z,23.20
2018-05-08T12:52:25.628Z,23.00
2018-05-08T12:55:29.981Z,23.00
2018-05-08T12:58:39.197Z,23.20
2018-05-08T13:01:43.690Z,23.30
2018-05-08T13:04:46.936Z,23.40
2018-05-08T13:07:50.215Z,23.40
2018-05-08T13:11:12.201Z,23.40
2018-05-08T13:14:15.669Z,23.50
2018-05-08T13:17:19.181Z,23.60
2018-05-08T13:20:22.515Z,23.20
2018-05-08T13:23:25.838Z,23.30
2018-05-08T13:26:29.065Z,23.30
2018-05-08T13:29:32.496Z,23.30
2018-05-08T13:35:46.138Z,23.30
2018-05-08T13:38:50.638Z,23.50
2018-05-08T13:41:53.947Z,23.30
2018-05-08T13:44:57.051Z,23.40
2018-05-08T13:48:02.723Z,23.50
2018-05-08T13:51:06.137Z,23.50
2018-05-08T13:54:10.127Z,23.70
2018-05-08T13:57:14.508Z,23.70
2018-05-08T14:00:17.759Z,23.60
2018-05-08T14:03:22.884Z,23.50
2018-05-08T14:06:26.113Z,23.50
2018-05-08T14:09:29.479Z,23.60
2018-05-08T14:12:34.002Z,23.60
2018-05-08T14:15:37.233Z,23.60
2018-05-08T14:18:41.212Z,23.50
2018-05-08T14:21:44.467Z,23.60
2018-05-08T14:24:48.827Z,23.60
2018-05-08T14:28:10.540Z,23.60
2018-05-08T14:31:31.623Z,23.60
2018-05-08T14:34:34.889Z,23.80
2018-05-08T14:37:40.352Z,23.70
2018-05-08T14:40:43.607Z,23.90
2018-05-08T14:43:46.846Z,23.90
2018-05-08T14:46:51.283Z,24.00
2018-05-08T14:49:54.546Z,24.00
2018-05-08T14:53:13.245Z,24.10
2018-05-08T14:56:16.756Z,24.10
2018-05-08T14:59:42.576Z,24.20
2018-05-08T15:02:46.695Z,24.40
2018-05-08T15:06:05.312Z,24.40
2018-05-08T15:09:12.810Z,24.30
2018-05-08T15:12:16.333Z,24.30
2018-05-08T15:15:19.815Z,24.40
2018-05-08T15:18:25.503Z,24.20
2018-05-08T15:21:30.395Z,24.20
2018-05-08T15:24:33.801Z,24.20
2018-05-08T15:27:47.522Z,24.10
2018-05-08T15:30:52.191Z,24.20
2018-05-08T15:33:57.298Z,24.20
2018-05-08T15:37:02.761Z,24.20
2018-05-08T15:40:10.294Z,24.30
2018-05-08T15:43:19.203Z,24.20
2018-05-08T15:46:23.461Z,24.10
2018-05-08T15:49:31.228Z,24.10
2018-05-08T15:52:34.683Z,24.00
2018-05-08T15:55:39.126Z,24.00
2018-05-08T15:58:50.557Z,23.90
2018-05-08T16:01:53.940Z,23.90
2018-05-08T16:04:59.288Z,23.70
2018-05-08T16:08:24.898Z,23.60
2018-05-08T16:12:21.755Z,23.60
2018-05-08T16:15:28.885Z,23.60
2018-05-08T16:18:32.867Z,23.50
2018-05-08T16:21:39.750Z,23.40
2018-05-08T16:24:44.380Z,23.30
2018-05-08T16:27:56.926Z,23.30
2018-05-08T16:31:01.423Z,23.30
2018-05-08T16:34:07.195Z,23.30
2018-05-08T16:37:14.656Z,23.30
2018-05-08T16:40:27.176Z,23.20
2018-05-08T16:43:32.966Z,23.00
2018-05-08T16:46:46.095Z,23.00
2018-05-08T16:49:52.645Z,23.00
2018-05-08T16:52:56.258Z,23.00
2018-05-08T16:56:02.624Z,23.00
2018-05-08T16:59:07.207Z,22.90
2018-05-08T17:02:13.442Z,22.90
2018-05-08T17:05:20.163Z,22.90
2018-05-08T17:08:27.569Z,22.70
2018-05-08T17:11:31.386Z,22.70
2018-05-08T17:18:04.330Z,22.70
2018-05-08T17:21:07.817Z,22.70
2018-05-08T17:24:17.921Z,22.50
2018-05-08T17:27:29.747Z,22.40
2018-05-08T17:30:33.617Z,22.40
2018-05-08T17:33:36.937Z,22.40
2018-05-08T17:36:40.399Z,22.40
2018-05-08T17:39:43.692Z,22.20
2018-05-08T17:42:47.021Z,22.20
2018-05-08T17:45:50.241Z,22.20
2018-05-08T17:48:54.248Z,22.00
2018-05-08T17:51:57.559Z,22.00
2018-05-08T17:55:00.772Z,21.90
2018-05-08T17:58:04.076Z,21.80
2018-05-08T18:01:07.327Z,21.70
2018-05-08T18:04:10.662Z,21.70
2018-05-08T18:07:14.655Z,21.40
2018-05-08T18:10:18.815Z,21.40
2018-05-08T18:13:22.091Z,21.30
2018-05-08T18:16:25.292Z,21.30
2018-05-08T18:19:28.464Z,21.30
2018-05-08T18:22:35.195Z,21.00
2018-05-08T18:25:39.851Z,20.90
2018-05-08T18:28:46.626Z,20.80
2018-05-08T18:31:50.108Z,20.80
2018-05-08T18:38:07.971Z,20.60
2018-05-08T18:41:11.381Z,20.60
2018-05-08T18:44:14.674Z,20.40
2018-05-08T18:47:17.882Z,20.40
2018-05-08T18:50:23.711Z,20.20
2018-05-08T18:53:27.120Z,20.10
2018-05-08T18:56:30.374Z,20.00
2018-05-08T18:59:37.734Z,19.90
2018-05-08T19:02:41.164Z,19.70
2018-05-08T19:05:45.487Z,19.50
2018-05-08T19:08:49.527Z,19.40
2018-05-08T19:11:55.393Z,19.30
2018-05-08T19:15:05.124Z,19.10
2018-05-08T19:18:10.552Z,19.10
2018-05-08T19:21:13.760Z,19.10
2018-05-08T19:24:23.937Z,19.10
2018-05-08T19:27:28.850Z,18.90
2018-05-08T19:30:34.306Z,18.80
2018-05-08T19:33:37.816Z,18.60
2018-05-08T19:36:47.563Z,18.60
2018-05-08T19:39:51.495Z,18.40
2018-05-08T19:42:55.915Z,18.20
2018-05-08T19:46:00.702Z,18.20
2018-05-08T19:49:17.425Z,18.20
2018-05-08T19:52:20.651Z,18.00
2018-05-08T19:55:24.933Z,17.90
2018-05-08T19:58:28.259Z,17.90
2018-05-08T20:01:32.375Z,17.80
2018-05-08T20:04:35.879Z,17.80
2018-05-08T20:07:41.056Z,17.80
2018-05-08T20:10:45.988Z,17.90
2018-05-08T20:13:50.152Z,17.90
2018-05-08T20:16:53.884Z,17.90
2018-05-08T20:19:58.145Z,17.90
2018-05-08T20:23:01.465Z,17.80
2018-05-08T20:26:05.580Z,17.70
2018-05-08T20:29:08.856Z,17.60
2018-05-08T20:32:12.327Z,17.60
2018-05-08T20:35:16.702Z,17.60
2018-05-08T20:38:19.882Z,17.60
2018-05-08T20:41:24.592Z,17.70
2018-05-08T20:44:28.615Z,17.20
2018-05-08T20:47:33.197Z,17.20
2018-05-08T20:50:37.203Z,16.80
2018-05-08T20:53:43.059Z,16.70
2018-05-08T20:56:46.272Z,16.60
2018-05-08T20:59:51.503Z,16.40
2018-05-08T21:02:55.504Z,16.30
2018-05-08T21:05:58.706Z,16.30
2018-05-08T21:09:01.874Z,16.20
2018-05-08T21:12:06.598Z,16.20
2018-05-08T21:15:09.908Z,16.30
2018-05-08T21:18:13.143Z,16.20
2018-05-08T21:21:16.826Z,16.20
2018-05-08T21:24:20.561Z,16.10
2018-05-08T21:27:31.939Z,15.90
2018-05-08T21:30:41.967Z,15.90
2018-05-08T21:33:45.978Z,15.80
2018-05-08T21:36:51.193Z,15.80
2018-05-08T21:39:54.907Z,15.70
2018-05-08T21:42:58.245Z,15.50
2018-05-08T21:46:01.476Z,15.50
2018-05-08T21:49:06.227Z,15.30
2018-05-08T21:52:09.428Z,15.30
2018-05-08T21:55:15.420Z,15.30
2018-05-08T21:58:19.274Z,15.20
2018-05-08T22:01:22.650Z,15.10
2018-05-08T22:04:26.426Z,15.00
2018-05-08T22:07:32.636Z,14.90
2018-05-08T22:10:36.619Z,14.80
2018-05-08T22:13:39.812Z,14.70
2018-05-08T22:16:43.843Z,14.70
2018-05-08T22:19:47.828Z,14.50
2018-05-08T22:22:51.927Z,14.40
2018-05-08T22:25:55.285Z,14.40
2018-05-08T22:28:59.348Z,14.20
2018-05-08T22:32:04.930Z,14.20
2018-05-08T22:35:08.883Z,14.10
2018-05-08T22:38:12.137Z,14.00
2018-05-08T22:41:15.344Z,13.90
2018-05-08T22:44:19.328Z,14.00
2018-05-08T22:47:22.514Z,14.00
2018-05-08T22:50:26.164Z,14.00
2018-05-08T22:53:29.540Z,13.90
2018-05-08T22:56:34.697Z,13.70
2018-05-08T22:59:38.693Z,13.60
2018-05-08T23:02:41.876Z,13.60
2018-05-08T23:05:45.070Z,13.60
2018-05-08T23:08:48.639Z,13.60
2018-05-08T23:11:51.817Z,13.60
2018-05-08T23:14:55.013Z,13.40
2018-05-08T23:17:58.935Z,13.30
2018-05-08T23:21:02.216Z,13.20
2018-05-08T23:24:06.170Z,13.10
2018-05-08T23:27:10.091Z,13.00
2018-05-08T23:30:13.527Z,13.00
2018-05-08T23:33:16.691Z,12.90
2018-05-08T23:36:19.944Z,12.80
2018-05-08T23:39:23.308Z,12.70
2018-05-08T23:42:26.824Z,12.60
2018-05-08T23:45:30.070Z,12.60
2018-05-08T23:48:33.440Z,12.60
2018-05-08T23:51:37.455Z,12.40
2018-05-08T23:54:40.649Z,12.40
2018-05-08T23:57:43.931Z,12.40
